createdAt,value
2018-03-30T00:02:06.137Z,1.50
2018-03-30T00:04:35.143Z,1.40
2018-03-30T00:07:08.181Z,1.40
2018-03-30T00:09:45.863Z,1.40
2018-03-30T00:12:15.465Z,1.40
2018-03-30T00:14:44.889Z,1.60
2018-03-30T00:17:14.729Z,1.40
2018-03-30T00:19:45.816Z,1.30
2018-03-30T00:22:15.493Z,1.30
2018-03-30T00:24:44.900Z,1.40
2018-03-30T00:27:14.038Z,1.40
2018-03-30T00:29:44.041Z,1.40
2018-03-30T00:32:13.451Z,1.40
2018-03-30T00:34:43.156Z,1.40
2018-03-30T00:37:13.135Z,1.40
2018-03-30T00:39:42.820Z,1.30
2018-03-30T00:42:12.965Z,1.40
2018-03-30T00:44:42.563Z,1.40
2018-03-30T00:47:12.277Z,1.20
2018-03-30T00:49:42.046Z,1.00
2018-03-30T00:52:11.630Z,1.00
2018-03-30T00:54:40.786Z,0.90
2018-03-30T00:57:10.464Z,0.80
2018-03-30T00:59:40.218Z,0.80
2018-03-30T01:02:11.480Z,0.90
2018-03-30T01:04:40.446Z,0.90
2018-03-30T01:07:11.049Z,0.80
2018-03-30T01:09:40.770Z,0.80
2018-03-30T01:12:09.772Z,0.90
2018-03-30T01:14:39.761Z,0.90
2018-03-30T01:17:08.971Z,0.90
2018-03-30T01:19:38.313Z,1.00
2018-03-30T01:22:08.494Z,1.00
2018-03-30T01:24:37.887Z,1.00
2018-03-30T01:27:07.081Z,1.00
2018-03-30T01:29:36.646Z,1.00
2018-03-30T01:32:07.253Z,1.00
2018-03-30T01:34:36.537Z,1.10
2018-03-30T01:37:05.893Z,1.10
2018-03-30T01:39:35.442Z,1.10
2018-03-30T01:42:04.814Z,1.10
2018-03-30T01:44:34.336Z,0.90
2018-03-30T01:47:03.119Z,0.80
2018-03-30T01:49:32.160Z,0.60
2018-03-30T01:52:02.355Z,0.50
2018-03-30T01:54:34.827Z,0.50
2018-03-30T01:57:03.907Z,0.50
2018-03-30T01:59:32.703Z,0.50
2018-03-30T02:02:01.742Z,0.40
2018-03-30T02:04:30.355Z,0.50
2018-03-30T02:06:59.449Z,0.50
2018-03-30T02:09:28.592Z,0.60
2018-03-30T02:11:57.731Z,0.70
2018-03-30T02:14:26.438Z,0.80
2018-03-30T02:16:54.911Z,0.90
2018-03-30T02:19:23.729Z,0.90
2018-03-30T02:21:53.053Z,0.80
2018-03-30T02:24:21.919Z,0.80
2018-03-30T02:26:51.102Z,0.70
2018-03-30T02:29:19.918Z,0.60
2018-03-30T02:31:48.840Z,0.60
2018-03-30T02:34:17.448Z,0.50
2018-03-30T02:36:46.090Z,0.60
2018-03-30T02:39:15.435Z,0.50
2018-03-30T02:41:43.849Z,0.40
2018-03-30T02:44:12.593Z,0.40
2018-03-30T02:46:41.314Z,0.50
2018-03-30T02:49:10.583Z,0.50
2018-03-30T02:51:39.405Z,0.50
2018-03-30T02:54:08.259Z,0.40
2018-03-30T02:56:37.699Z,0.50
2018-03-30T02:59:07.388Z,0.50
2018-03-30T03:01:35.988Z,0.50
2018-03-30T03:04:04.534Z,0.50
2018-03-30T03:06:33.336Z,0.60
2018-03-30T03:09:02.022Z,0.60
2018-03-30T03:11:30.736Z,0.60
2018-03-30T03:13:59.073Z,0.60
2018-03-30T03:16:27.725Z,0.60
2018-03-30T03:18:57.045Z,0.60
2018-03-30T03:21:25.852Z,0.60
2018-03-30T03:23:54.142Z,0.60
2018-03-30T03:26:22.936Z,0.60
2018-03-30T03:28:51.858Z,0.70
2018-03-30T03:31:20.607Z,0.60
2018-03-30T03:33:49.259Z,0.60
2018-03-30T03:36:18.036Z,0.50
2018-03-30T03:38:46.927Z,0.60
2018-03-30T03:41:15.752Z,0.50
2018-03-30T03:43:44.200Z,0.50
2018-03-30T03:46:13.741Z,0.50
2018-03-30T03:48:42.144Z,0.50
2018-03-30T03:51:10.892Z,0.50
2018-03-30T03:53:39.609Z,0.50
2018-03-30T03:56:08.660Z,0.50
2018-03-30T03:58:37.262Z,0.50
2018-03-30T04:01:05.969Z,0.50
2018-03-30T04:03:34.455Z,0.40
2018-03-30T04:06:03.113Z,0.50
2018-03-30T04:08:32.057Z,0.50
2018-03-30T04:11:01.590Z,0.40
2018-03-30T04:13:30.249Z,0.40
2018-03-30T04:15:58.965Z,0.40
2018-03-30T04:18:28.220Z,0.10
2018-03-30T04:20:56.531Z,0.10
2018-03-30T04:23:25.261Z,-0.10
2018-03-30T04:25:53.754Z,-0.10
2018-03-30T04:28:22.280Z,0.00
2018-03-30T04:30:51.012Z,0.00
2018-03-30T04:33:19.571Z,0.10
2018-03-30T04:35:48.263Z,0.10
2018-03-30T04:38:16.647Z,0.20
2018-03-30T04:40:45.296Z,0.20
2018-03-30T04:43:13.668Z,0.10
2018-03-30T04:45:42.164Z,0.10
2018-03-30T04:48:11.853Z,0.10
2018-03-30T04:50:40.161Z,0.10
2018-03-30T04:53:09.066Z,0.10
2018-03-30T04:55:38.469Z,0.10
2018-03-30T04:58:07.640Z,0.00
2018-03-30T05:00:36.453Z,0.00
2018-03-30T05:03:05.729Z,-0.10
2018-03-30T05:05:35.292Z,-0.30
2018-03-30T05:08:04.690Z,-0.40
2018-03-30T05:10:33.952Z,-0.40
2018-03-30T05:13:02.648Z,-0.40
2018-03-30T05:15:31.397Z,-0.60
2018-03-30T05:18:01.014Z,-0.60
2018-03-30T05:20:29.879Z,-0.60
2018-03-30T05:22:59.624Z,-0.50
2018-03-30T05:25:27.986Z,-0.50
2018-03-30T05:27:56.323Z,-0.50
2018-03-30T05:30:24.569Z,-0.40
2018-03-30T05:32:53.172Z,-0.40
2018-03-30T05:35:21.790Z,-0.50
2018-03-30T05:37:50.269Z,-0.50
2018-03-30T05:40:18.756Z,-0.60
2018-03-30T05:42:47.095Z,-0.70
2018-03-30T05:45:15.871Z,-0.70
2018-03-30T05:47:44.319Z,-0.70
2018-03-30T05:50:13.550Z,-0.60
2018-03-30T05:52:42.312Z,-0.60
2018-03-30T05:55:10.891Z,-0.60
2018-03-30T05:57:39.643Z,-0.50
2018-03-30T06:00:08.918Z,-0.40
2018-03-30T06:02:37.752Z,-0.40
2018-03-30T06:05:06.571Z,-0.40
2018-03-30T06:07:37.217Z,-0.30
2018-03-30T06:10:06.800Z,-0.40
2018-03-30T06:12:36.354Z,-0.30
2018-03-30T06:15:05.834Z,-0.20
2018-03-30T06:17:35.106Z,-0.10
2018-03-30T06:20:05.201Z,0.00
2018-03-30T06:22:35.097Z,0.00
2018-03-30T06:25:05.048Z,0.60
2018-03-30T06:27:34.222Z,0.60
2018-03-30T06:30:04.300Z,0.50
2018-03-30T06:32:34.217Z,0.60
2018-03-30T06:35:03.816Z,0.60
2018-03-30T06:37:34.011Z,0.80
2018-03-30T06:40:03.655Z,1.00
2018-03-30T06:42:34.572Z,1.20
2018-03-30T06:45:04.171Z,1.20
2018-03-30T06:47:34.209Z,1.00
2018-03-30T06:50:04.896Z,0.70
2018-03-30T06:52:35.060Z,0.70
2018-03-30T06:55:05.850Z,1.00
2018-03-30T06:57:36.852Z,0.90
2018-03-30T07:00:06.989Z,1.50
2018-03-30T07:02:36.680Z,1.50
2018-03-30T07:05:07.014Z,1.90
2018-03-30T07:07:37.028Z,2.00
2018-03-30T07:10:07.193Z,1.80
2018-03-30T07:12:36.545Z,1.80
2018-03-30T07:15:06.240Z,1.90
2018-03-30T07:17:36.567Z,1.70
2018-03-30T07:20:06.694Z,1.90
2018-03-30T07:22:38.248Z,2.10
2018-03-30T07:25:08.379Z,2.60
2018-03-30T07:27:38.957Z,3.40
2018-03-30T07:30:08.336Z,3.40
2018-03-30T07:32:37.710Z,4.00
2018-03-30T07:35:07.275Z,4.60
2018-03-30T07:37:36.405Z,5.60
2018-03-30T07:40:06.155Z,6.20
2018-03-30T07:42:36.067Z,6.00
2018-03-30T07:45:05.563Z,6.40
2018-03-30T07:47:35.215Z,7.70
2018-03-30T07:50:04.519Z,8.50
2018-03-30T07:52:33.799Z,9.60
2018-03-30T07:55:02.763Z,8.40
2018-03-30T07:57:31.828Z,6.00
2018-03-30T08:00:01.029Z,5.60
2018-03-30T08:02:30.299Z,8.20
2018-03-30T08:04:59.140Z,10.10
2018-03-30T08:07:29.686Z,10.50
2018-03-30T08:09:58.801Z,11.10
2018-03-30T08:12:28.491Z,11.00
2018-03-30T08:14:57.516Z,10.60
2018-03-30T08:17:26.501Z,10.90
2018-03-30T08:19:56.707Z,11.80
2018-03-30T08:22:25.779Z,11.80
2018-03-30T08:24:54.608Z,11.00
2018-03-30T08:27:23.735Z,9.60
2018-03-30T08:29:53.575Z,8.60
2018-03-30T08:32:22.700Z,8.50
2018-03-30T08:34:52.906Z,9.10
2018-03-30T08:37:22.183Z,9.90
2018-03-30T08:39:51.813Z,10.70
2018-03-30T08:42:21.299Z,11.00
2018-03-30T08:44:50.988Z,11.50
2018-03-30T08:47:20.680Z,12.70
2018-03-30T08:49:51.146Z,12.60
2018-03-30T08:52:21.636Z,12.50
2018-03-30T08:54:51.753Z,11.40
2018-03-30T08:57:21.858Z,11.10
2018-03-30T08:59:50.803Z,11.10
2018-03-30T09:02:20.068Z,11.10
2018-03-30T09:04:51.057Z,11.70
2018-03-30T09:07:20.801Z,11.70
2018-03-30T09:09:52.972Z,13.80
2018-03-30T09:12:22.986Z,13.10
2018-03-30T09:14:52.937Z,11.80
2018-03-30T09:17:21.918Z,11.70
2018-03-30T09:19:51.885Z,10.30
2018-03-30T09:22:21.625Z,10.10
2018-03-30T09:24:51.435Z,10.20
2018-03-30T09:27:24.187Z,9.90
2018-03-30T09:29:53.371Z,9.90
2018-03-30T09:32:22.420Z,10.00
2018-03-30T09:34:52.527Z,9.60
2018-03-30T09:37:22.144Z,9.80
2018-03-30T09:39:51.941Z,9.60
2018-03-30T09:42:21.868Z,9.70
2018-03-30T09:44:51.548Z,9.70
2018-03-30T09:47:21.067Z,9.70
2018-03-30T09:49:50.934Z,9.90
2018-03-30T09:52:20.563Z,9.90
2018-03-30T09:54:50.426Z,10.10
2018-03-30T09:57:20.125Z,10.50
2018-03-30T09:59:49.195Z,10.50
2018-03-30T10:02:18.148Z,10.50
2018-03-30T10:04:51.859Z,10.60
2018-03-30T10:07:21.482Z,10.50
2018-03-30T10:09:52.047Z,10.70
2018-03-30T10:12:21.788Z,10.70
2018-03-30T10:14:51.042Z,10.50
2018-03-30T10:17:21.035Z,11.00
2018-03-30T10:19:50.346Z,10.90
2018-03-30T10:22:21.585Z,10.80
2018-03-30T10:24:51.597Z,10.80
2018-03-30T10:27:20.626Z,10.90
2018-03-30T10:29:50.376Z,10.60
2018-03-30T10:32:19.503Z,10.60
2018-03-30T10:34:48.984Z,10.60
2018-03-30T10:37:18.338Z,10.60
2018-03-30T10:39:48.867Z,11.10
2018-03-30T10:42:18.486Z,11.20
2018-03-30T10:44:47.361Z,11.20
2018-03-30T10:47:17.115Z,11.60
2018-03-30T10:49:46.062Z,11.60
2018-03-30T10:52:18.860Z,10.90
2018-03-30T10:54:47.633Z,10.90
2018-03-30T10:57:17.505Z,11.20
2018-03-30T10:59:47.007Z,11.10
2018-03-30T11:02:17.032Z,11.30
2018-03-30T11:04:46.683Z,11.30
2018-03-30T11:07:15.638Z,11.40
2018-03-30T11:09:44.697Z,11.30
2018-03-30T11:12:13.621Z,11.40
2018-03-30T11:14:42.817Z,11.50
2018-03-30T11:17:11.680Z,11.80
2018-03-30T11:19:41.065Z,11.90
2018-03-30T11:22:09.993Z,11.90
2018-03-30T11:24:38.925Z,11.60
2018-03-30T11:27:07.789Z,11.80
2018-03-30T11:29:37.268Z,11.60
2018-03-30T11:32:06.206Z,11.80
2018-03-30T11:34:35.169Z,12.00
2018-03-30T11:37:05.705Z,12.20
2018-03-30T11:39:34.476Z,11.90
2018-03-30T11:42:04.053Z,11.80
2018-03-30T11:44:32.939Z,11.70
2018-03-30T11:47:01.855Z,11.80
2018-03-30T11:49:30.777Z,11.80
2018-03-30T11:52:00.407Z,12.10
2018-03-30T11:54:30.132Z,12.40
2018-03-30T11:56:59.222Z,12.40
2018-03-30T11:59:28.109Z,12.40
2018-03-30T12:01:57.494Z,12.40
2018-03-30T12:04:27.833Z,12.30
2018-03-30T12:06:57.322Z,12.30
2018-03-30T12:09:26.881Z,12.30
2018-03-30T12:11:55.842Z,12.30
2018-03-30T12:14:25.602Z,12.40
2018-03-30T12:16:55.653Z,12.40
2018-03-30T12:19:25.769Z,12.60
2018-03-30T12:21:55.444Z,12.60
2018-03-30T12:24:24.260Z,12.60
2018-03-30T12:26:54.089Z,12.50
2018-03-30T12:29:22.981Z,12.50
2018-03-30T12:31:51.778Z,12.50
2018-03-30T12:34:21.342Z,12.60
2018-03-30T12:36:50.953Z,12.70
2018-03-30T12:39:21.313Z,12.30
2018-03-30T12:41:50.102Z,12.30
2018-03-30T12:44:19.512Z,12.40
2018-03-30T12:46:48.367Z,12.40
2018-03-30T12:49:18.045Z,12.50
2018-03-30T12:51:46.907Z,12.50
2018-03-30T12:54:16.607Z,12.70
2018-03-30T12:56:45.520Z,12.70
2018-03-30T12:59:14.434Z,12.80
2018-03-30T13:01:43.516Z,12.70
2018-03-30T13:04:13.083Z,12.80
2018-03-30T13:06:42.579Z,12.60
2018-03-30T13:09:12.439Z,12.80
2018-03-30T13:11:41.419Z,12.80
2018-03-30T13:14:11.240Z,13.10
2018-03-30T13:16:40.098Z,13.10
2018-03-30T13:19:09.815Z,13.10
2018-03-30T13:21:38.710Z,13.20
2018-03-30T13:24:07.716Z,13.30
2018-03-30T13:26:37.994Z,13.30
2018-03-30T13:29:06.744Z,13.30
2018-03-30T13:31:36.131Z,13.30
2018-03-30T13:34:04.919Z,13.30
2018-03-30T13:36:33.686Z,13.40
2018-03-30T13:39:02.338Z,13.30
2018-03-30T13:41:31.748Z,13.40
2018-03-30T13:44:00.230Z,13.40
2018-03-30T13:46:29.013Z,13.40
2018-03-30T13:48:57.948Z,13.40
2018-03-30T13:51:27.037Z,13.20
2018-03-30T13:53:56.636Z,13.10
2018-03-30T13:56:25.563Z,13.10
2018-03-30T13:58:54.560Z,13.30
2018-03-30T14:01:24.447Z,13.20
2018-03-30T14:03:54.097Z,13.30
2018-03-30T14:06:24.091Z,13.30
2018-03-30T14:08:53.105Z,13.30
2018-03-30T14:11:22.844Z,13.10
2018-03-30T14:13:51.739Z,13.10
2018-03-30T14:16:20.533Z,13.10
2018-03-30T14:18:49.366Z,12.90
2018-03-30T14:21:20.065Z,13.10
2018-03-30T14:23:49.239Z,13.10
2018-03-30T14:26:18.312Z,13.10
2018-03-30T14:28:47.900Z,13.00
2018-03-30T14:31:18.014Z,13.00
2018-03-30T14:33:47.118Z,13.00
2018-03-30T14:36:17.060Z,13.20
2018-03-30T14:38:45.852Z,13.20
2018-03-30T14:41:16.041Z,13.10
2018-03-30T14:43:45.713Z,13.10
2018-03-30T14:46:14.716Z,13.10
2018-03-30T14:48:43.781Z,13.00
2018-03-30T14:51:12.786Z,13.00
2018-03-30T14:53:41.718Z,12.90
2018-03-30T14:56:11.388Z,13.00
2018-03-30T14:58:40.300Z,12.90
2018-03-30T15:01:09.596Z,12.90
2018-03-30T15:03:39.512Z,12.70
2018-03-30T15:06:08.553Z,12.60
2018-03-30T15:08:37.651Z,12.60
2018-03-30T15:11:06.491Z,12.60
2018-03-30T15:13:35.560Z,12.50
2018-03-30T15:16:04.694Z,12.60
2018-03-30T15:18:34.339Z,12.70
2018-03-30T15:21:04.030Z,12.70
2018-03-30T15:23:33.128Z,12.70
2018-03-30T15:26:02.152Z,12.80
2018-03-30T15:28:30.952Z,12.80
2018-03-30T15:31:01.007Z,12.80
2018-03-30T15:33:31.142Z,12.70
2018-03-30T15:36:00.781Z,12.70
2018-03-30T15:38:29.753Z,12.60
2018-03-30T15:40:58.957Z,12.60
2018-03-30T15:43:28.014Z,12.60
2018-03-30T15:45:57.867Z,12.50
2018-03-30T15:48:26.839Z,12.50
2018-03-30T15:50:56.768Z,12.40
2018-03-30T15:53:24.661Z,12.50
2018-03-30T15:55:53.684Z,12.50
2018-03-30T15:58:22.714Z,12.50
2018-03-30T16:00:51.798Z,12.60
2018-03-30T16:03:21.606Z,12.60
2018-03-30T16:05:51.492Z,12.50
2018-03-30T16:08:20.482Z,12.50
2018-03-30T16:10:49.559Z,12.50
2018-03-30T16:13:18.638Z,12.50
2018-03-30T16:15:47.813Z,12.40
2018-03-30T16:18:17.835Z,12.40
2018-03-30T16:20:45.999Z,12.40
2018-03-30T16:23:13.244Z,12.40
2018-03-30T16:25:40.637Z,12.30
2018-03-30T16:28:08.715Z,12.40
2018-03-30T16:30:36.259Z,12.30
2018-03-30T16:33:03.620Z,12.40
2018-03-30T16:35:30.832Z,12.40
2018-03-30T16:37:58.115Z,12.40
2018-03-30T16:40:25.370Z,12.30
2018-03-30T16:42:52.630Z,12.30
2018-03-30T16:45:20.589Z,12.20
2018-03-30T16:47:49.105Z,12.20
2018-03-30T16:50:16.339Z,12.20
2018-03-30T16:52:43.405Z,12.20
2018-03-30T16:55:10.672Z,12.20
2018-03-30T16:57:39.208Z,12.20
2018-03-30T17:00:06.519Z,12.10
2018-03-30T17:02:36.667Z,12.10
2018-03-30T17:05:03.747Z,12.10
2018-03-30T17:07:31.156Z,12.10
2018-03-30T17:09:58.329Z,12.10
2018-03-30T17:12:25.543Z,12.00
2018-03-30T17:14:53.391Z,12.00
2018-03-30T17:17:21.393Z,11.90
2018-03-30T17:19:49.428Z,11.90
2018-03-30T17:22:17.125Z,11.90
2018-03-30T17:24:45.623Z,11.80
2018-03-30T17:27:13.179Z,11.80
2018-03-30T17:29:40.668Z,11.80
2018-03-30T17:32:08.121Z,11.80
2018-03-30T17:34:35.401Z,11.90
2018-03-30T17:37:03.767Z,11.90
2018-03-30T17:39:31.226Z,11.80
2018-03-30T17:41:58.415Z,11.80
2018-03-30T17:44:25.571Z,11.80
2018-03-30T17:46:52.870Z,11.80
2018-03-30T17:49:20.010Z,11.70
2018-03-30T17:51:48.296Z,11.60
2018-03-30T17:54:15.376Z,11.50
2018-03-30T17:56:43.436Z,11.40
2018-03-30T17:59:11.686Z,11.40
2018-03-30T18:01:39.562Z,11.30
2018-03-30T18:04:06.870Z,11.30
2018-03-30T18:06:34.169Z,11.30
2018-03-30T18:09:01.748Z,11.30
2018-03-30T18:11:29.680Z,11.20
2018-03-30T18:13:56.991Z,11.20
2018-03-30T18:16:25.358Z,11.20
2018-03-30T18:18:52.846Z,11.20
2018-03-30T18:21:20.739Z,11.20
2018-03-30T18:23:48.216Z,11.10
2018-03-30T18:26:15.354Z,11.00
2018-03-30T18:28:42.784Z,10.90
2018-03-30T18:31:10.292Z,10.90
2018-03-30T18:33:37.877Z,10.90
2018-03-30T18:36:05.136Z,10.90
2018-03-30T18:38:33.067Z,10.80
2018-03-30T18:41:01.089Z,10.80
2018-03-30T18:43:28.199Z,10.80
2018-03-30T18:45:55.455Z,10.80
2018-03-30T18:48:22.955Z,10.80
2018-03-30T18:50:50.458Z,10.70
2018-03-30T18:53:17.513Z,10.70
2018-03-30T18:55:45.360Z,10.50
2018-03-30T18:58:13.426Z,10.50
2018-03-30T19:00:41.343Z,10.40
2018-03-30T19:03:08.531Z,10.40
2018-03-30T19:05:36.565Z,10.40
2018-03-30T19:08:03.760Z,10.30
2018-03-30T19:10:30.924Z,10.30
2018-03-30T19:12:58.902Z,10.30
2018-03-30T19:15:26.087Z,10.20
2018-03-30T19:17:53.678Z,10.30
2018-03-30T19:20:21.239Z,10.30
2018-03-30T19:22:49.092Z,10.20
2018-03-30T19:25:16.480Z,10.20
2018-03-30T19:27:44.718Z,10.10
2018-03-30T19:30:12.790Z,10.10
2018-03-30T19:32:39.876Z,10.10
2018-03-30T19:35:08.005Z,10.00
2018-03-30T19:37:35.587Z,10.00
2018-03-30T19:40:02.734Z,10.00
2018-03-30T19:42:29.899Z,10.00
2018-03-30T19:44:57.756Z,9.90
2018-03-30T19:47:24.976Z,10.00
2018-03-30T19:49:52.264Z,9.90
2018-03-30T19:52:19.393Z,9.90
2018-03-30T19:54:46.775Z,9.90
2018-03-30T19:57:14.509Z,9.90
2018-03-30T19:59:41.896Z,9.80
2018-03-30T20:02:09.835Z,9.80
2018-03-30T20:04:37.190Z,9.80
2018-03-30T20:07:05.276Z,9.80
2018-03-30T20:09:33.350Z,10.00
2018-03-30T20:12:01.707Z,10.00
2018-03-30T20:14:28.800Z,9.90
2018-03-30T20:16:58.183Z,9.90
2018-03-30T20:19:25.461Z,9.80
2018-03-30T20:21:53.418Z,9.80
2018-03-30T20:24:20.789Z,9.70
2018-03-30T20:26:48.168Z,9.50
2018-03-30T20:29:15.631Z,9.30
2018-03-30T20:31:42.924Z,9.20
2018-03-30T20:34:10.931Z,9.10
2018-03-30T20:36:38.143Z,9.10
2018-03-30T20:39:06.052Z,9.00
2018-03-30T20:41:33.449Z,9.00
2018-03-30T20:44:01.014Z,9.00
2018-03-30T20:46:28.854Z,8.90
2018-03-30T20:48:56.308Z,8.90
2018-03-30T20:51:23.435Z,8.90
2018-03-30T20:53:50.615Z,8.80
2018-03-30T20:56:17.770Z,8.80
2018-03-30T20:58:45.112Z,8.80
2018-03-30T21:01:12.774Z,8.80
2018-03-30T21:03:40.445Z,8.90
2018-03-30T21:06:07.753Z,8.80
2018-03-30T21:08:35.266Z,8.80
2018-03-30T21:11:03.141Z,8.70
2018-03-30T21:13:30.837Z,8.70
2018-03-30T21:15:58.042Z,8.70
2018-03-30T21:18:25.972Z,8.60
2018-03-30T21:20:53.467Z,8.60
2018-03-30T21:23:21.367Z,8.50
2018-03-30T21:25:48.623Z,8.50
2018-03-30T21:28:16.877Z,8.50
2018-03-30T21:30:45.070Z,8.50
2018-03-30T21:33:13.064Z,8.40
2018-03-30T21:35:40.243Z,8.50
2018-03-30T21:38:07.554Z,8.40
2018-03-30T21:40:35.542Z,8.10
2018-03-30T21:43:03.580Z,7.80
2018-03-30T21:45:30.904Z,7.80
2018-03-30T21:47:58.762Z,7.60
2018-03-30T21:50:25.857Z,7.60
2018-03-30T21:52:53.134Z,7.50
2018-03-30T21:55:20.223Z,7.60
2018-03-30T21:57:50.865Z,7.60
2018-03-30T22:00:18.678Z,7.60
2018-03-30T22:02:46.253Z,7.60
2018-03-30T22:05:13.370Z,7.60
2018-03-30T22:07:40.720Z,7.60
2018-03-30T22:10:08.809Z,7.50
2018-03-30T22:12:35.973Z,7.40
2018-03-30T22:15:03.207Z,7.30
2018-03-30T22:17:30.513Z,7.40
2018-03-30T22:19:58.574Z,7.40
2018-03-30T22:22:26.801Z,7.30
2018-03-30T22:24:54.498Z,7.30
2018-03-30T22:27:21.700Z,7.30
2018-03-30T22:29:48.764Z,7.30
2018-03-30T22:32:17.381Z,7.40
2018-03-30T22:34:45.150Z,7.40
2018-03-30T22:37:13.347Z,7.50
2018-03-30T22:39:41.352Z,7.50
2018-03-30T22:42:08.739Z,7.50
2018-03-30T22:44:36.165Z,7.50
2018-03-30T22:47:04.026Z,7.60
2018-03-30T22:49:31.579Z,7.70
2018-03-30T22:51:59.726Z,7.70
2018-03-30T22:54:27.178Z,7.80
2018-03-30T22:56:55.085Z,8.00
2018-03-30T22:59:22.463Z,8.00
2018-03-30T23:01:50.342Z,8.10
2018-03-30T23:04:17.526Z,8.10
2018-03-30T23:06:45.087Z,8.10
2018-03-30T23:09:12.971Z,8.20
2018-03-30T23:11:40.360Z,8.20
2018-03-30T23:14:08.735Z,8.30
2018-03-30T23:16:36.747Z,8.30
2018-03-30T23:19:05.080Z,8.30
2018-03-30T23:21:33.171Z,8.30
2018-03-30T23:24:01.037Z,8.30
2018-03-30T23:26:29.082Z,8.40
2018-03-30T23:28:57.756Z,8.40
2018-03-30T23:31:25.149Z,8.40
2018-03-30T23:33:52.534Z,8.40
2018-03-30T23:36:21.274Z,8.40
2018-03-30T23:38:49.075Z,8.40
2018-03-30T23:41:16.615Z,8.40
2018-03-30T23:43:44.628Z,8.40
2018-03-30T23:46:12.020Z,8.40
2018-03-30T23:48:39.505Z,8.40
2018-03-30T23:51:07.746Z,8.40
2018-03-30T23:53:35.044Z,8.40
2018-03-30T23:56:02.501Z,8.40
2018-03-30T23:58:30.870Z,8.40
